createdAt,value
2019-02-19T00:01:55.205Z,51.23
2019-02-19T00:04:21.843Z,49.93
2019-02-19T00:06:48.504Z,53.35
2019-02-19T00:09:15.029Z,63.98
2019-02-19T00:11:41.818Z,60.25
2019-02-19T00:14:08.549Z,56.65
2019-02-19T00:16:35.258Z,54.50
2019-02-19T00:19:01.938Z,55.05
2019-02-19T00:21:28.525Z,55.25
2019-02-19T00:23:55.060Z,52.53
2019-02-19T00:26:21.642Z,59.50
2019-02-19T00:28:48.208Z,62.70
2019-02-19T00:31:14.804Z,58.40
2019-02-19T00:33:41.401Z,53.85
2019-02-19T00:36:07.990Z,60.30
2019-02-19T00:38:34.529Z,56.13
2019-02-19T00:41:01.094Z,62.20
2019-02-19T00:43:30.869Z,57.00
2019-02-19T00:45:57.398Z,57.98
2019-02-19T00:48:23.950Z,54.00
2019-02-19T00:50:50.518Z,56.10
2019-02-19T00:53:17.052Z,54.42
2019-02-19T00:55:43.598Z,53.35
2019-02-19T00:58:10.148Z,54.75
2019-02-19T01:00:36.707Z,49.35
2019-02-19T01:03:03.244Z,47.30
2019-02-19T01:05:29.986Z,47.20
2019-02-19T01:07:56.515Z,46.13
2019-02-19T01:10:25.729Z,48.92
2019-02-19T01:12:53.743Z,46.58
2019-02-19T01:15:25.420Z,52.48
2019-02-19T01:17:50.529Z,57.53
2019-02-19T01:20:18.545Z,54.15
2019-02-19T01:22:48.671Z,49.63
2019-02-19T01:25:20.946Z,53.30
2019-02-19T01:27:54.315Z,50.73
2019-02-19T01:30:27.528Z,58.15
2019-02-19T01:32:57.342Z,58.25
2019-02-19T01:35:24.396Z,53.73
2019-02-19T01:37:51.736Z,52.67
2019-02-19T01:40:20.010Z,49.30
2019-02-19T01:45:37.895Z,51.70
2019-02-19T01:48:04.921Z,55.48
2019-02-19T01:50:33.779Z,56.13
2019-02-19T01:53:01.476Z,57.50
2019-02-19T01:55:28.277Z,48.60
2019-02-19T01:57:55.547Z,52.90
2019-02-19T02:00:22.093Z,51.85
2019-02-19T02:02:48.692Z,55.58
2019-02-19T02:05:15.270Z,57.00
2019-02-19T02:07:42.783Z,61.15
2019-02-19T02:10:09.338Z,61.58
2019-02-19T02:12:36.010Z,58.08
2019-02-19T02:15:02.675Z,65.87
2019-02-19T02:17:29.449Z,62.50
2019-02-19T02:19:56.035Z,59.15
2019-02-19T02:22:22.608Z,59.67
2019-02-19T02:24:49.172Z,55.80
2019-02-19T02:27:15.844Z,56.65
2019-02-19T02:29:45.504Z,43.28
2019-02-19T02:32:12.039Z,55.35
2019-02-19T02:34:38.592Z,58.17
2019-02-19T02:37:05.166Z,57.30
2019-02-19T02:39:31.733Z,57.88
2019-02-19T02:41:58.701Z,54.95
2019-02-19T02:44:25.287Z,63.65
2019-02-19T02:46:51.907Z,61.37
2019-02-19T02:49:18.552Z,58.58
2019-02-19T02:51:45.167Z,59.18
2019-02-19T02:54:12.825Z,56.83
2019-02-19T02:56:39.387Z,50.12
2019-02-19T02:59:05.974Z,52.90
2019-02-19T03:01:32.530Z,70.30
2019-02-19T03:03:59.086Z,58.42
2019-02-19T03:06:27.575Z,63.38
2019-02-19T03:08:54.217Z,68.47
2019-02-19T03:11:20.792Z,65.32
2019-02-19T03:13:47.439Z,68.02
2019-02-19T03:16:13.995Z,64.15
2019-02-19T03:18:40.561Z,65.80
2019-02-19T03:21:07.163Z,50.12
2019-02-19T03:23:33.761Z,56.23
2019-02-19T03:26:00.341Z,56.65
2019-02-19T03:28:26.916Z,56.60
2019-02-19T03:30:53.477Z,58.65
2019-02-19T03:33:20.024Z,60.88
2019-02-19T03:35:46.598Z,63.52
2019-02-19T03:38:13.173Z,59.38
2019-02-19T03:40:39.754Z,65.17
2019-02-19T03:43:06.306Z,62.17
2019-02-19T03:45:32.865Z,60.38
2019-02-19T03:47:59.430Z,53.90
2019-02-19T03:50:26.016Z,60.80
2019-02-19T03:52:52.565Z,56.45
2019-02-19T03:55:19.155Z,59.33
2019-02-19T03:57:45.780Z,68.42
2019-02-19T04:00:12.435Z,55.00
2019-02-19T04:02:39.085Z,60.58
2019-02-19T04:05:05.683Z,61.05
2019-02-19T04:07:32.326Z,51.37
2019-02-19T04:09:58.931Z,56.58
2019-02-19T04:12:25.519Z,47.58
2019-02-19T04:14:52.056Z,52.30
2019-02-19T04:17:18.605Z,54.53
2019-02-19T04:19:45.178Z,57.10
2019-02-19T04:22:11.742Z,62.90
2019-02-19T04:24:38.291Z,58.10
2019-02-19T04:27:04.939Z,56.80
2019-02-19T04:29:31.594Z,56.30
2019-02-19T04:31:58.164Z,55.63
2019-02-19T04:34:24.997Z,56.70
2019-02-19T04:36:51.820Z,55.78
2019-02-19T04:39:18.385Z,50.08
2019-02-19T04:41:44.963Z,49.03
2019-02-19T04:44:11.589Z,54.88
2019-02-19T04:46:38.191Z,54.13
2019-02-19T04:49:04.854Z,57.65
2019-02-19T04:51:31.391Z,55.78
2019-02-19T04:53:57.934Z,55.05
2019-02-19T04:56:24.502Z,57.17
2019-02-19T04:58:51.120Z,50.48
2019-02-19T05:01:17.707Z,63.52
2019-02-19T05:03:44.283Z,57.88
2019-02-19T05:06:10.844Z,58.08
2019-02-19T05:08:37.416Z,59.30
2019-02-19T05:11:04.238Z,53.75
2019-02-19T05:13:30.991Z,54.18
2019-02-19T05:15:57.629Z,55.30
2019-02-19T05:18:24.348Z,60.63
2019-02-19T05:20:51.083Z,55.63
2019-02-19T05:23:17.757Z,53.38
2019-02-19T05:25:44.333Z,54.98
2019-02-19T05:28:10.898Z,65.95
2019-02-19T05:30:37.502Z,69.40
2019-02-19T05:33:04.092Z,58.68
2019-02-19T05:35:30.654Z,61.80
2019-02-19T05:37:57.210Z,62.80
2019-02-19T05:40:23.786Z,60.45
2019-02-19T05:42:50.338Z,60.80
2019-02-19T05:45:16.898Z,70.92
2019-02-19T05:47:43.487Z,66.57
2019-02-19T05:50:10.042Z,67.12
2019-02-19T05:52:36.591Z,59.75
2019-02-19T05:55:05.474Z,60.28
2019-02-19T05:57:32.062Z,57.15
2019-02-19T05:59:58.625Z,59.33
2019-02-19T06:02:25.213Z,67.97
2019-02-19T06:04:52.871Z,59.83
2019-02-19T06:07:19.428Z,54.35
2019-02-19T06:09:45.999Z,60.10
2019-02-19T06:12:13.813Z,65.28
2019-02-19T06:14:40.586Z,57.30
2019-02-19T06:17:08.104Z,59.80
2019-02-19T06:19:34.640Z,62.17
2019-02-19T06:22:01.186Z,59.05
2019-02-19T06:24:27.736Z,60.70
2019-02-19T06:26:54.301Z,61.60
2019-02-19T06:29:20.871Z,60.38
2019-02-19T06:31:47.450Z,57.53
2019-02-19T06:34:14.367Z,64.20
2019-02-19T06:36:41.218Z,57.90
2019-02-19T06:39:07.768Z,58.52
2019-02-19T06:41:34.313Z,61.15
2019-02-19T06:44:00.865Z,68.95
2019-02-19T06:46:27.419Z,71.65
2019-02-19T06:48:55.167Z,79.00
2019-02-19T06:51:21.710Z,71.53
2019-02-19T06:53:48.262Z,75.47
2019-02-19T06:56:14.788Z,72.40
2019-02-19T06:58:41.328Z,70.60
2019-02-19T07:01:07.894Z,69.45
2019-02-19T07:03:39.093Z,74.50
2019-02-19T07:06:05.703Z,79.80
2019-02-19T07:08:32.276Z,69.70
2019-02-19T07:10:58.844Z,89.32
2019-02-19T07:13:25.439Z,81.82
2019-02-19T07:15:52.039Z,85.42
2019-02-19T07:18:18.573Z,86.97
2019-02-19T07:20:45.164Z,81.32
2019-02-19T07:23:11.708Z,76.55
2019-02-19T07:25:38.262Z,86.00
2019-02-19T07:28:04.843Z,81.55
2019-02-19T07:30:31.402Z,87.00
2019-02-19T07:32:57.921Z,76.67
2019-02-19T07:35:24.486Z,76.12
2019-02-19T07:37:51.060Z,73.87
2019-02-19T07:40:17.627Z,69.80
2019-02-19T07:42:44.126Z,74.53
2019-02-19T07:45:12.083Z,75.25
2019-02-19T07:47:38.639Z,80.75
2019-02-19T07:50:08.012Z,81.05
2019-02-19T07:52:34.570Z,85.60
2019-02-19T07:55:01.098Z,74.00
2019-02-19T07:57:27.667Z,81.12
2019-02-19T07:59:54.206Z,79.17
2019-02-19T08:02:21.875Z,79.10
2019-02-19T08:04:48.423Z,62.25
2019-02-19T08:07:14.995Z,62.55
2019-02-19T08:09:41.582Z,69.12
2019-02-19T08:12:08.133Z,54.77
2019-02-19T08:14:35.171Z,54.90
2019-02-19T08:17:01.734Z,59.75
2019-02-19T08:19:28.899Z,63.98
2019-02-19T08:21:55.489Z,63.65
2019-02-19T08:24:22.017Z,67.47
2019-02-19T08:26:48.597Z,59.65
2019-02-19T08:29:15.150Z,58.75
2019-02-19T08:31:41.740Z,59.70
2019-02-19T08:34:08.301Z,53.35
2019-02-19T08:36:34.857Z,57.00
2019-02-19T08:39:01.436Z,51.85
2019-02-19T08:41:29.959Z,49.90
2019-02-19T08:43:56.529Z,52.40
2019-02-19T08:46:23.076Z,49.33
2019-02-19T08:48:49.619Z,51.68
2019-02-19T08:51:16.177Z,52.48
2019-02-19T08:53:42.720Z,51.90
2019-02-19T08:56:09.300Z,77.37
2019-02-19T08:58:35.852Z,284.27
2019-02-19T09:01:02.381Z,283.47
2019-02-19T09:03:28.929Z,354.65
2019-02-19T09:05:56.711Z,413.70
2019-02-19T09:08:23.869Z,396.05
2019-02-19T09:10:50.428Z,423.43
2019-02-19T09:13:17.132Z,263.68
2019-02-19T09:15:43.739Z,149.65
2019-02-19T09:18:10.333Z,79.35
2019-02-19T09:20:41.506Z,68.67
2019-02-19T09:26:08.169Z,54.73
2019-02-19T09:31:26.050Z,79.27
2019-02-19T09:33:52.588Z,77.45
2019-02-19T09:36:19.163Z,81.37
2019-02-19T09:38:45.710Z,76.65
2019-02-19T09:41:12.266Z,62.93
2019-02-19T09:43:38.863Z,58.73
2019-02-19T09:46:05.432Z,59.88
2019-02-19T09:48:31.991Z,71.40
2019-02-19T09:50:58.546Z,59.67
2019-02-19T09:53:25.211Z,65.92
2019-02-19T09:55:51.752Z,56.95
2019-02-19T09:58:18.310Z,56.70
2019-02-19T10:00:44.871Z,57.43
2019-02-19T10:03:11.523Z,59.00
2019-02-19T10:05:38.086Z,61.50
2019-02-19T10:08:04.748Z,63.48
2019-02-19T10:10:31.336Z,62.00
2019-02-19T10:13:00.769Z,70.92
2019-02-19T10:15:27.646Z,69.67
2019-02-19T10:17:54.334Z,71.67
2019-02-19T10:20:22.066Z,66.02
2019-02-19T10:22:48.639Z,69.03
2019-02-19T10:25:15.207Z,84.97
2019-02-19T10:27:41.857Z,75.75
2019-02-19T10:30:14.371Z,78.97
2019-02-19T10:32:41.838Z,81.75
2019-02-19T10:35:09.943Z,93.90
2019-02-19T10:37:36.517Z,91.00
2019-02-19T10:40:06.053Z,82.60
2019-02-19T10:42:32.776Z,81.15
2019-02-19T10:45:00.572Z,78.02
2019-02-19T10:47:27.177Z,73.57
2019-02-19T10:49:53.755Z,80.10
2019-02-19T10:52:20.373Z,76.85
2019-02-19T10:54:47.023Z,68.20
2019-02-19T10:57:13.579Z,69.42
2019-02-19T10:59:40.140Z,62.70
2019-02-19T11:02:06.719Z,69.00
2019-02-19T11:04:33.299Z,64.37
2019-02-19T11:06:59.878Z,67.97
2019-02-19T11:09:27.086Z,69.82
2019-02-19T11:11:53.681Z,69.75
2019-02-19T11:14:20.318Z,69.87
2019-02-19T11:16:48.759Z,65.05
2019-02-19T11:19:21.778Z,65.65
2019-02-19T11:21:49.971Z,61.73
2019-02-19T11:24:17.901Z,63.50
2019-02-19T11:26:45.348Z,64.95
2019-02-19T11:29:11.964Z,60.10
2019-02-19T11:31:38.569Z,61.63
2019-02-19T11:34:05.130Z,56.77
2019-02-19T11:36:31.704Z,61.83
2019-02-19T11:38:58.386Z,58.98
2019-02-19T11:41:24.935Z,52.62
2019-02-19T11:43:51.508Z,55.78
2019-02-19T11:46:18.077Z,53.52
2019-02-19T11:48:44.650Z,55.83
2019-02-19T11:51:11.231Z,47.03
2019-02-19T11:53:37.819Z,52.48
2019-02-19T11:56:04.331Z,50.98
2019-02-19T11:58:32.073Z,42.75
2019-02-19T12:00:58.644Z,37.50
2019-02-19T12:03:25.199Z,41.35
2019-02-19T12:05:51.741Z,39.50
2019-02-19T12:08:18.288Z,36.60
2019-02-19T12:10:46.054Z,33.05
2019-02-19T12:13:12.681Z,42.45
2019-02-19T12:15:39.248Z,37.88
2019-02-19T12:18:05.821Z,33.33
2019-02-19T12:20:32.413Z,35.08
2019-02-19T12:22:58.973Z,34.92
2019-02-19T12:25:25.563Z,33.85
2019-02-19T12:27:52.095Z,39.23
2019-02-19T12:30:18.880Z,33.13
2019-02-19T12:32:45.417Z,28.42
2019-02-19T12:35:11.998Z,26.85
2019-02-19T12:37:38.678Z,34.92
2019-02-19T12:40:08.149Z,28.83
2019-02-19T12:42:34.683Z,33.55
2019-02-19T12:45:01.258Z,33.05
2019-02-19T12:47:28.002Z,28.92
2019-02-19T12:49:54.564Z,26.60
2019-02-19T12:52:21.114Z,28.83
2019-02-19T12:54:47.768Z,29.07
2019-02-19T12:57:14.741Z,26.37
2019-02-19T12:59:41.465Z,26.93
2019-02-19T13:02:08.023Z,29.80
2019-02-19T13:04:34.595Z,30.68
2019-02-19T13:07:01.152Z,31.42
2019-02-19T13:09:27.739Z,30.12
2019-02-19T13:11:54.282Z,28.20
2019-02-19T13:14:20.841Z,31.65
2019-02-19T13:16:47.415Z,27.07
2019-02-19T13:19:13.968Z,28.40
2019-02-19T13:21:40.812Z,30.30
2019-02-19T13:24:07.334Z,28.75
2019-02-19T13:26:33.981Z,26.68
2019-02-19T13:29:00.571Z,26.35
2019-02-19T13:31:27.139Z,28.85
2019-02-19T13:33:53.681Z,33.13
2019-02-19T13:36:20.256Z,26.77
2019-02-19T13:38:46.821Z,29.60
2019-02-19T13:41:13.397Z,32.20
2019-02-19T13:43:39.980Z,28.87
2019-02-19T13:46:06.547Z,37.78
2019-02-19T13:48:33.111Z,32.23
2019-02-19T13:50:59.688Z,31.42
2019-02-19T13:53:28.142Z,32.53
2019-02-19T13:55:56.607Z,32.90
2019-02-19T13:58:23.197Z,30.15
2019-02-19T14:00:50.663Z,32.78
2019-02-19T14:03:17.229Z,29.98
2019-02-19T14:05:43.784Z,31.27
2019-02-19T14:08:14.468Z,30.17
2019-02-19T14:10:38.710Z,29.50
2019-02-19T14:13:05.261Z,30.70
2019-02-19T14:15:48.752Z,31.82
2019-02-19T14:18:17.209Z,31.27
2019-02-19T14:21:04.061Z,29.80
2019-02-19T14:23:49.130Z,30.30
2019-02-19T14:26:17.609Z,30.32
2019-02-19T14:28:46.157Z,27.02
2019-02-19T14:31:20.945Z,29.20
2019-02-19T14:34:01.538Z,27.98
2019-02-19T14:36:46.853Z,33.13
2019-02-19T14:39:27.576Z,29.90
2019-02-19T14:41:56.067Z,31.30
2019-02-19T14:44:36.768Z,28.00
2019-02-19T14:47:20.554Z,32.80
2019-02-19T14:49:48.993Z,33.10
2019-02-19T14:52:21.412Z,32.00
2019-02-19T14:54:49.886Z,33.60
2019-02-19T14:57:30.616Z,32.80
2019-02-19T15:00:15.870Z,37.00
2019-02-19T15:02:53.589Z,48.70
2019-02-19T15:05:24.938Z,53.78
2019-02-19T15:08:10.240Z,44.27
2019-02-19T15:10:41.743Z,43.98
2019-02-19T15:13:10.207Z,40.98
2019-02-19T15:15:55.157Z,39.75
2019-02-19T15:18:40.352Z,46.25
2019-02-19T15:21:11.812Z,71.33
2019-02-19T15:23:43.406Z,59.73
2019-02-19T15:26:18.167Z,63.00
2019-02-19T15:28:52.580Z,40.20
2019-02-19T15:31:27.129Z,47.58
2019-02-19T15:34:13.774Z,49.20
2019-02-19T15:36:52.939Z,52.93
2019-02-19T15:39:27.415Z,47.85
2019-02-19T15:42:05.832Z,42.65
2019-02-19T15:44:34.301Z,41.75
2019-02-19T15:47:23.955Z,40.55
2019-02-19T15:50:01.573Z,40.55
2019-02-19T15:52:48.057Z,36.17
2019-02-19T15:55:16.508Z,35.60
2019-02-19T15:57:49.162Z,37.67
2019-02-19T16:03:21.472Z,41.37
2019-02-19T16:05:59.290Z,41.73
2019-02-19T16:08:27.895Z,40.90
2019-02-19T16:10:57.374Z,39.53
2019-02-19T16:16:44.698Z,42.10
2019-02-19T16:19:32.671Z,41.83
2019-02-19T16:22:02.383Z,42.08
2019-02-19T16:24:44.453Z,43.58
2019-02-19T16:27:16.904Z,37.67
2019-02-19T16:29:49.479Z,41.55
2019-02-19T16:32:31.654Z,46.85
2019-02-19T16:35:01.441Z,42.20
2019-02-19T16:40:40.143Z,48.35
2019-02-19T16:43:11.404Z,51.37
2019-02-19T16:46:04.230Z,54.65
2019-02-19T16:54:45.143Z,60.78
2019-02-19T16:57:14.403Z,60.23
2019-02-19T17:00:10.840Z,64.15
2019-02-19T17:02:39.389Z,61.18
2019-02-19T17:08:28.750Z,62.20
2019-02-19T17:13:58.702Z,55.83
2019-02-19T17:20:00.246Z,66.55
2019-02-19T17:22:32.704Z,72.67
2019-02-19T17:25:14.976Z,70.60
2019-02-19T17:27:46.603Z,66.57
2019-02-19T17:30:18.211Z,66.75
2019-02-19T17:32:46.846Z,66.53
2019-02-19T17:38:39.899Z,59.15
2019-02-19T17:41:19.724Z,63.80
2019-02-19T17:46:55.313Z,77.30
2019-02-19T17:49:31.631Z,67.75
2019-02-19T17:52:11.330Z,62.13
2019-02-19T17:54:42.734Z,71.92
2019-02-19T17:57:11.567Z,75.00
2019-02-19T17:59:46.092Z,71.20
2019-02-19T18:02:14.759Z,72.70
2019-02-19T18:04:46.327Z,69.32
2019-02-19T18:07:15.092Z,68.55
2019-02-19T18:09:43.982Z,73.00
2019-02-19T18:12:12.863Z,71.28
2019-02-19T18:14:41.635Z,70.75
2019-02-19T18:17:12.934Z,70.80
2019-02-19T18:19:39.576Z,69.55
2019-02-19T18:22:06.105Z,78.55
2019-02-19T18:24:32.661Z,79.55
2019-02-19T18:26:59.249Z,69.40
2019-02-19T18:29:25.800Z,75.03
2019-02-19T18:31:52.390Z,76.15
2019-02-19T18:34:18.945Z,80.67
2019-02-19T18:36:45.537Z,79.82
2019-02-19T18:39:12.303Z,78.30
2019-02-19T18:41:39.303Z,80.03
2019-02-19T18:44:05.892Z,81.45
2019-02-19T18:46:32.478Z,84.45
2019-02-19T18:48:59.031Z,86.45
2019-02-19T18:51:25.599Z,86.63
2019-02-19T18:53:52.223Z,96.42
2019-02-19T18:56:18.847Z,84.65
2019-02-19T18:58:45.583Z,82.45
2019-02-19T19:01:12.189Z,82.50
2019-02-19T19:03:38.972Z,88.22
2019-02-19T19:06:06.851Z,90.92
2019-02-19T19:08:33.505Z,94.85
2019-02-19T19:11:01.406Z,100.02
2019-02-19T19:13:28.006Z,100.90
2019-02-19T19:15:54.672Z,103.90
2019-02-19T19:18:21.290Z,100.62
2019-02-19T19:20:47.840Z,109.42
2019-02-19T19:23:14.455Z,101.10
2019-02-19T19:25:41.002Z,99.67
2019-02-19T19:28:07.608Z,104.12
2019-02-19T19:30:34.183Z,99.72
2019-02-19T19:33:00.742Z,104.50
2019-02-19T19:35:27.411Z,107.45
2019-02-19T19:37:54.247Z,104.32
2019-02-19T19:40:20.930Z,103.87
2019-02-19T19:42:47.610Z,99.62
2019-02-19T19:45:14.231Z,107.50
2019-02-19T19:47:40.804Z,115.52
2019-02-19T19:50:08.878Z,110.63
2019-02-19T19:52:35.568Z,111.45
2019-02-19T19:55:02.210Z,105.03
2019-02-19T19:57:28.915Z,118.47
2019-02-19T19:59:55.523Z,119.77
2019-02-19T20:02:22.126Z,121.37
2019-02-19T20:04:48.816Z,113.62
2019-02-19T20:07:15.423Z,106.80
2019-02-19T20:09:42.108Z,108.55
2019-02-19T20:12:08.789Z,103.90
2019-02-19T20:14:35.421Z,115.57
2019-02-19T20:17:02.039Z,109.95
2019-02-19T20:19:28.711Z,109.80
2019-02-19T20:21:55.324Z,110.65
2019-02-19T20:24:21.967Z,113.77
2019-02-19T20:26:48.674Z,113.32
2019-02-19T20:29:15.296Z,100.85
2019-02-19T20:31:42.003Z,103.38
2019-02-19T20:34:08.683Z,124.53
2019-02-19T20:36:35.366Z,113.05
2019-02-19T20:39:02.438Z,110.40
2019-02-19T20:41:30.901Z,112.05
2019-02-19T20:43:57.554Z,112.83
2019-02-19T20:46:24.246Z,105.00
2019-02-19T20:48:50.972Z,111.35
2019-02-19T20:51:17.561Z,100.65
2019-02-19T20:53:44.114Z,102.70
2019-02-19T20:56:10.779Z,107.97
2019-02-19T20:58:37.450Z,112.25
2019-02-19T21:01:04.034Z,106.45
2019-02-19T21:03:30.937Z,108.40
2019-02-19T21:05:57.542Z,92.67
2019-02-19T21:08:24.233Z,114.05
2019-02-19T21:10:50.871Z,116.57
2019-02-19T21:13:17.450Z,114.82
2019-02-19T21:15:44.090Z,112.80
2019-02-19T21:18:10.878Z,100.07
2019-02-19T21:20:37.462Z,111.65
2019-02-19T21:23:04.456Z,99.72
2019-02-19T21:25:31.389Z,115.20
2019-02-19T21:27:58.203Z,107.55
2019-02-19T21:30:24.901Z,111.15
2019-02-19T21:32:51.667Z,115.15
2019-02-19T21:35:18.331Z,102.17
2019-02-19T21:37:44.981Z,111.52
2019-02-19T21:40:15.062Z,106.32
2019-02-19T21:42:42.023Z,104.05
2019-02-19T21:45:11.270Z,107.63
2019-02-19T21:47:39.177Z,108.15
2019-02-19T21:50:08.685Z,125.42
2019-02-19T21:52:35.482Z,121.15
2019-02-19T21:55:04.552Z,118.33
2019-02-19T21:57:31.922Z,113.65
2019-02-19T21:59:58.553Z,117.72
2019-02-19T22:02:25.229Z,116.93
2019-02-19T22:04:51.981Z,111.45
2019-02-19T22:07:18.634Z,114.67
2019-02-19T22:09:45.401Z,129.68
2019-02-19T22:12:11.966Z,128.68
2019-02-19T22:14:38.613Z,117.95
2019-02-19T22:17:06.382Z,126.07
2019-02-19T22:19:33.070Z,113.95
2019-02-19T22:22:03.461Z,112.42
2019-02-19T22:24:36.074Z,110.52
2019-02-19T22:27:04.430Z,129.90
2019-02-19T22:29:31.198Z,141.55
2019-02-19T22:31:57.786Z,146.90
2019-02-19T22:34:24.368Z,156.78
2019-02-19T22:36:50.985Z,134.50
2019-02-19T22:39:17.530Z,124.20
2019-02-19T22:41:44.060Z,133.95
2019-02-19T22:44:11.605Z,135.72
2019-02-19T22:46:38.272Z,131.32
2019-02-19T22:49:04.843Z,121.65
2019-02-19T22:51:31.420Z,121.02
2019-02-19T22:54:02.894Z,127.00
2019-02-19T22:56:31.359Z,120.47
2019-02-19T22:58:58.229Z,109.97
2019-02-19T23:01:27.184Z,116.85
2019-02-19T23:03:54.524Z,118.33
2019-02-19T23:06:21.183Z,111.37
2019-02-19T23:08:47.762Z,111.47
2019-02-19T23:11:14.302Z,116.08
2019-02-19T23:13:40.958Z,114.05
2019-02-19T23:16:07.517Z,109.42
2019-02-19T23:18:34.035Z,110.78
2019-02-19T23:21:00.591Z,112.42
2019-02-19T23:23:27.243Z,102.95
2019-02-19T23:25:53.886Z,99.47
2019-02-19T23:28:20.469Z,114.88
2019-02-19T23:30:47.131Z,105.35
2019-02-19T23:33:13.821Z,98.85
2019-02-19T23:35:48.119Z,112.00
2019-02-19T23:38:14.678Z,108.85
2019-02-19T23:40:41.248Z,105.75
2019-02-19T23:43:07.834Z,91.90
2019-02-19T23:45:34.684Z,123.10
2019-02-19T23:48:01.421Z,117.67
2019-02-19T23:50:28.099Z,108.45
2019-02-19T23:52:54.691Z,114.03
2019-02-19T23:55:21.269Z,128.10
2019-02-19T23:57:47.837Z,116.97
